Weather History for KTMK - November, 2013

Change the Weather History Date:

Thursday, November 7, 2013

  Actual Average (KMMV) Record (KMMV)
Temperature  
Mean Temperature 52 °F 47 °F  
Max Temperature 55 °F 55 °F 70 °F (1923)
Min Temperature 48 °F 39 °F 24 °F (1957)
Degree Days  
Heating Degree Days 14 18  
Month to date heating degree days 124  
Since 1 July heating degree days 747  
Cooling Degree Days 0 0  
Month to date cooling degree days 0  
Year to date cooling degree days 215  
Growing Degree Days 2 (Base 50)    
Moisture  
Dew Point 49 °F    
Average Humidity 90    
Maximum Humidity 100    
Minimum Humidity 67    
Precipitation  
Precipitation 0.91 in 0.20 in 1.41 in (1896)
Month to date precipitation 1.37  
Year to date precipitation 28.23  
Sea Level Pressure  
Sea Level Pressure 30.02 in    
Wind  
Wind Speed 7 mph (SSW)    
Max Wind Speed 20 mph    
Max Gust Speed 40 mph    
Visibility 7 miles    
Events Rain    
T = Trace of Precipitation, MM = Missing Value Source: NWS Daily Summary

Daily Weather History Graph

Daily Weather History Graph

Search for Another Location

Airport or City:

Trip Planner

Search our weather history database for the weather conditions in past years. The results will help you decide how hot, cold, wet, or windy it might be!

Date:

Astronomy

Nov. 07, 2013 Rise Set
Actual Time 8:03 AM MST 5:53 PM MST
Civil Twilight 7:32 AM MST 6:25 PM MST
Nautical Twilight 6:56 AM MST 7:00 PM MST
Astronomical Twilight 6:22 AM MST 7:35 PM MST
Moon 12:19 PM MST (11/7) 10:10 PM MST (11/7)
Length of Visible Light 10h 53m
Length of Day
9h 50m
Waxing Crescent, 23% of the Moon is Illuminated
Nov 7
Waxing Crescent
Nov 9
First Quarter
Nov 17
Full
Nov 25
Last Quarter
Dec 2
New

Hourly Weather History & Observations

Time (MST) Temp. Dew Point Humidity Pressure Visibility Wind Dir Wind Speed Gust Speed Precip Events Conditions
12:15 AM 53.6 °F 53.6 °F 100% 30.10 in 7.0 mi East 4.6 mph - 0.01 in Rain Light Rain
12:35 AM 53.6 °F 53.6 °F 100% 30.09 in 7.0 mi Calm Calm - 0.02 in Rain Light Rain
12:55 AM 53.6 °F 53.6 °F 100% 30.08 in 7.0 mi Calm Calm - 0.02 in Rain Light Rain
1:15 AM 53.6 °F 53.6 °F 100% 30.07 in 7.0 mi Calm Calm - N/A   Light Drizzle
1:35 AM 53.6 °F 53.6 °F 100% 30.06 in 7.0 mi NE 3.5 mph - N/A   Overcast
1:55 AM 53.6 °F 53.6 °F 100% 30.06 in 10.0 mi Calm Calm - N/A   Overcast
2:15 AM 53.6 °F 53.6 °F 100% 30.05 in 7.0 mi Calm Calm - N/A   Overcast
2:35 AM 53.6 °F 53.6 °F 100% 30.04 in 5.0 mi South 3.5 mph - N/A Rain Rain
2:55 AM 55.4 °F 53.6 °F 94% 30.03 in 7.0 mi South 4.6 mph - 0.01 in   Light Drizzle
3:15 AM 55.4 °F 53.6 °F 94% 30.03 in 5.0 mi South 3.5 mph - N/A Rain Heavy Rain
3:35 AM 55.4 °F 53.6 °F 94% 30.02 in 10.0 mi South 4.6 mph - 0.01 in Rain Light Rain
3:55 AM 55.4 °F 53.6 °F 94% 30.01 in 7.0 mi SSE 5.8 mph - 0.03 in Rain Rain
4:15 AM 55.4 °F 53.6 °F 94% 30.00 in 3.0 mi SSE 9.2 mph - 0.01 in   Drizzle
4:35 AM 55.4 °F 53.6 °F 94% 29.99 in 7.0 mi SSE 10.4 mph - 0.01 in   Drizzle
4:55 AM 55.4 °F 53.6 °F 94% 29.99 in 5.0 mi South 6.9 mph - 0.02 in Rain Rain
5:15 AM 55.4 °F 53.6 °F 94% 29.98 in 4.0 mi South 6.9 mph - 0.01 in   Heavy Drizzle
5:35 AM 55.4 °F 53.6 °F 94% 29.97 in 5.0 mi South 6.9 mph - 0.03 in Rain Rain
5:55 AM 55.4 °F 53.6 °F 94% 29.96 in 10.0 mi SSE 6.9 mph - 0.03 in   Overcast
6:15 AM 55.4 °F 53.6 °F 94% 29.95 in 10.0 mi South 6.9 mph - N/A   Overcast
6:35 AM 55.4 °F 53.6 °F 94% 29.94 in 5.0 mi SSW 5.8 mph - 0.01 in Rain Light Rain
6:55 AM 55.4 °F 53.6 °F 94% 29.93 in 10.0 mi SSE 8.1 mph 17.3 mph 0.01 in Rain Light Rain
7:15 AM 55.4 °F 53.6 °F 94% 29.91 in 10.0 mi SSE 11.5 mph 16.1 mph 0.01 in Rain Light Rain
7:35 AM 55.4 °F 53.6 °F 94% 29.90 in 10.0 mi South 9.2 mph - 0.02 in Rain Heavy Rain
7:55 AM 55.4 °F 51.8 °F 88% 29.88 in 5.0 mi South 15.0 mph 29.9 mph 0.10 in Rain Rain
8:15 AM 50.0 °F 50.0 °F 100% 29.95 in 4.0 mi WSW 16.1 mph 40.3 mph 0.08 in Rain Rain
8:35 AM 50.0 °F 48.2 °F 94% 29.97 in 5.0 mi SW 8.1 mph - 0.12 in Rain Rain
8:55 AM 50.0 °F 48.2 °F 94% 29.98 in 4.0 mi SSW 4.6 mph - 0.18 in Rain Rain
9:15 AM 50.0 °F 46.4 °F 87% 29.98 in 5.0 mi WSW 5.8 mph - 0.03 in Rain Rain
9:35 AM 48.2 °F 44.6 °F 87% 29.98 in 3.0 mi Calm Calm - 0.10 in Rain Rain
9:55 AM 48.2 °F 44.6 °F 87% 29.97 in 3.0 mi Calm Calm - 0.17 in Rain Rain
10:15 AM 48.2 °F 46.4 °F 93% 29.97 in 10.0 mi SSE 4.6 mph - 0.01 in   Overcast
10:35 AM 48.2 °F 46.4 °F 93% 29.98 in 10.0 mi SSE 4.6 mph - 0.01 in   Overcast
10:55 AM 50.0 °F 46.4 °F 87% 29.98 in 10.0 mi SSE 6.9 mph - 0.01 in   Overcast
11:15 AM 50.0 °F 48.2 °F 94% 29.98 in 10.0 mi South 9.2 mph - N/A   Overcast
11:35 AM 50.0 °F 48.2 °F 94% 29.97 in 5.0 mi SSW 10.4 mph - N/A Rain Light Rain
11:55 AM 51.8 °F 50.0 °F 94% 29.98 in 10.0 mi SSW 10.4 mph - N/A   Overcast
12:15 PM 51.8 °F 48.2 °F 88% 29.97 in 10.0 mi SSW 11.5 mph 16.1 mph N/A   Mostly Cloudy
12:35 PM 53.6 °F 50.0 °F 88% 29.98 in 10.0 mi SSW 13.8 mph 18.4 mph N/A   Mostly Cloudy
12:55 PM 53.6 °F 46.4 °F 77% 29.99 in 10.0 mi SW 18.4 mph 25.3 mph N/A   Overcast
1:15 PM 51.8 °F 46.4 °F 82% 29.99 in 10.0 mi SW 11.5 mph 17.3 mph N/A Rain Light Rain
1:35 PM 53.6 °F 46.4 °F 77% 29.99 in 10.0 mi SW 16.1 mph 20.7 mph N/A   Scattered Clouds
1:55 PM 53.6 °F 46.4 °F 77% 29.99 in 10.0 mi SW 17.3 mph 23.0 mph N/A   Mostly Cloudy
2:15 PM 53.6 °F 46.4 °F 77% 29.98 in 7.0 mi SW 17.3 mph 25.3 mph N/A   Mostly Cloudy
2:35 PM 53.6 °F 46.4 °F 77% 30.00 in 10.0 mi SW 13.8 mph 19.6 mph N/A   Mostly Cloudy
2:55 PM 55.4 °F 46.4 °F 72% 30.00 in 10.0 mi SW 19.6 mph 24.2 mph N/A   Scattered Clouds
3:15 PM 55.4 °F 46.4 °F 72% 30.01 in 7.0 mi SW 19.6 mph 28.8 mph N/A   Mostly Cloudy
3:55 PM 53.6 °F 44.6 °F 72% 30.02 in 7.0 mi SW 17.3 mph 29.9 mph N/A   Overcast
4:15 PM 53.6 °F 44.6 °F 72% 30.02 in 10.0 mi SW 18.4 mph 26.5 mph N/A   Overcast
4:35 PM 53.6 °F 42.8 °F 67% 30.02 in 10.0 mi SW 19.6 mph 28.8 mph N/A   Overcast
4:55 PM 53.6 °F 42.8 °F 67% 30.03 in 10.0 mi SW 18.4 mph 26.5 mph N/A   Overcast
5:15 PM 51.8 °F 46.4 °F 82% 30.04 in 7.0 mi SW 13.8 mph 25.3 mph N/A Rain Light Rain
5:35 PM 51.8 °F 46.4 °F 82% 30.03 in 5.0 mi SW 9.2 mph 20.7 mph N/A Rain Light Rain
5:55 PM 50.0 °F 46.4 °F 87% 30.04 in 3.0 mi WSW 15.0 mph 21.9 mph 0.05 in Rain Rain
6:15 PM 50.0 °F 46.4 °F 87% 30.05 in 5.0 mi SW 11.5 mph 18.4 mph 0.06 in Rain Light Rain
6:35 PM 50.0 °F 48.2 °F 94% 30.06 in 4.0 mi WSW 8.1 mph - 0.09 in Rain Heavy Rain
6:55 PM 50.0 °F 48.2 °F 94% 30.06 in 7.0 mi SW 11.5 mph - 0.09 in   Overcast
7:15 PM 50.0 °F 48.2 °F 94% 30.07 in 5.0 mi SW 9.2 mph - 0.03 in Rain Rain
7:35 PM 50.0 °F 46.4 °F 87% 30.08 in 10.0 mi SW 8.1 mph - 0.03 in   Overcast
7:55 PM 50.0 °F 48.2 °F 94% 30.09 in 5.0 mi SW 12.7 mph - 0.05 in Rain Light Rain
8:15 PM 50.0 °F 46.4 °F 87% 30.09 in 10.0 mi SW 6.9 mph - N/A   Overcast
8:35 PM 50.0 °F 46.4 °F 87% 30.09 in 10.0 mi SW 6.9 mph - N/A   Overcast
8:55 PM 50.0 °F 48.2 °F 94% 30.11 in 4.0 mi West 9.2 mph - 0.04 in Rain Light Rain
9:15 PM 50.0 °F 48.2 °F 94% 30.12 in 4.0 mi WSW 9.2 mph - 0.03 in Rain Light Rain
9:35 PM 48.2 °F 46.4 °F 93% 30.12 in 7.0 mi SW 5.8 mph - 0.04 in Rain Light Rain
9:55 PM 48.2 °F 46.4 °F 93% 30.12 in 5.0 mi SSW 4.6 mph - 0.05 in   Drizzle
10:15 PM 48.2 °F 46.4 °F 93% 30.13 in 10.0 mi SSW 4.6 mph - N/A   Overcast
10:35 PM 48.2 °F 46.4 °F 93% 30.13 in 10.0 mi Calm Calm - N/A   Overcast
10:55 PM 48.2 °F 46.4 °F 93% 30.14 in 10.0 mi Calm Calm - N/A   Overcast
11:15 PM 48.2 °F 46.4 °F 93% 30.14 in 10.0 mi ESE 5.8 mph - N/A   Overcast
11:35 PM 48.2 °F 46.4 °F 93% 30.14 in 7.0 mi SSE 3.5 mph - N/A Rain Light Rain
11:55 PM 48.2 °F 46.4 °F 93% 30.14 in 7.0 mi Calm Calm - 0.05 in Rain Light Rain